Flight Track Log - Related Links

Times and Time Zones

All times are in EDT time to prevent confusion due to time zone crossing. See the AAL1774 flight status page for this flight to view local times or setup timezone preferences in your user account.

Time Position Orientation Groundspeed Altitude Reporting Facility
EDT Latitude Longitude Course Direction KTS MPH feet Rate Location/Type
Thu 08:55:49 AM 18.3333 -64.9500 281° West 140 161 1,300  Level San Juan Center
Thu 08:56:50 AM 18.2833 -64.9500 180° South 230 265 3,300 2,380 Climbing San Juan Center
Thu 08:57:50 AM 18.2500 -65.0333 247° West 290 334 6,100 2,850 Climbing San Juan Center
Thu 08:58:00 AM 18.3028 -65.3375 283° West  Level FlightAware Approximate
Thu 08:58:50 AM 18.2667 -65.1167 282° West 310 357 9,000  Level San Juan Center
Thu 08:59:00 AM 18.3288 -65.4608 282° West  Level FlightAware Approximate
Thu 08:59:51 AM 18.2833 -65.2167 280° West 330 380 10,900  Level San Juan Center
Thu 09:00:00 AM 18.3557 -65.5837 289° West  Level FlightAware Approximate
Thu 09:00:51 AM 18.3000 -65.3000 282° West 360 414 12,700  Level San Juan Center
Thu 09:01:00 AM 18.3825 -65.7064 281° West  Level FlightAware Approximate
Thu 09:01:51 AM 18.3167 -65.4167 279° West 360 414 15,300  Level San Juan Center
Thu 09:02:51 AM 18.3500 -65.5167 289° West 390 449 17,300 1,983 Climbing San Juan Center
Thu 09:03:52 AM 18.4000 -65.6167 298° West 390 449 19,300 1,835 Climbing San Juan Center
Thu 09:04:52 AM 18.4667 -65.7167 305° West 400 460 21,000 1,650 Climbing San Juan Center
Thu 09:05:52 AM 18.5333 -65.8000 310° West 410 472 22,600 1,636 Climbing San Juan Center
Thu 09:06:53 AM 18.6000 -65.9000 305° West 430 495 24,300 1,785 Climbing San Juan Center
Thu 09:07:53 AM 18.6833 -66.0000 311° West 430 495 26,200 1,800 Climbing San Juan Center
Thu 09:08:53 AM 18.7667 -66.1167 307° West 450 518 27,900 1,636 Climbing San Juan Center
Thu 09:09:54 AM 18.8333 -66.2167 305° West 450 518 29,500 1,587 Climbing San Juan Center
Thu 09:10:54 AM 18.9167 -66.3167 311° West 460 529 31,100 1,750 Climbing San Juan Center
Thu 09:11:54 AM 19.0000 -66.4333 307° West 460 529 33,000 1,785 Climbing San Juan Center
Thu 09:12:55 AM 19.0833 -66.5333 311° West 460 529 34,700 1,686 Climbing San Juan Center
Thu 09:13:55 AM 19.1500 -66.6500 301° West 460 529 36,400 1,450 Climbing San Juan Center
Thu 09:14:55 AM 19.2500 -66.7500 317° Northwest 460 529 37,600 793 Climbing San Juan Center
Thu 09:15:56 AM 19.3167 -66.8500 305° West 450 518 38,000 198 Climbing San Juan Center
Thu 09:16:56 AM 19.4000 -66.9667 307° West 440 506 38,000  Level San Juan Center
Thu 09:17:56 AM 19.4667 -67.0667 305° West 440 506 38,000  Level San Juan Center
Thu 09:18:56 AM 19.5500 -67.1667 311° West 440 506 38,000  Level San Juan Center
Thu 09:19:57 AM 19.6333 -67.2667 312° West 440 506 38,000  Level San Juan Center
Thu 09:20:57 AM 19.7000 -67.3667 305° West 440 506 38,000  Level San Juan Center
Thu 09:21:57 AM 19.7667 -67.4667 305° West 420 483 38,000  Level San Juan Center
Thu 09:22:58 AM 19.8333 -67.5833 301° West 440 506 38,000  Level San Juan Center
Thu 09:23:58 AM 19.9167 -67.6833 312° West 450 518 38,000  Level San Juan Center
Thu 09:24:58 AM 19.9833 -67.7833 305° West 450 518 38,000  Level San Juan Center
Thu 09:25:59 AM 20.0667 -67.9000 307° West 450 518 38,000  Level San Juan Center
Thu 09:26:59 AM 20.1500 -68.0000 312° West 450 518 38,000  Level San Juan Center
Thu 09:27:42 AM 20.1942 -68.0917 297° West 454 522 38,000  Level Miami Center
Thu 09:28:42 AM 20.2731 -68.1989 308° West 464 534 38,000  Level Miami Center
Thu 09:29:42 AM 20.3417 -68.3094 304° West 464 534 38,000  Level Miami Center
Thu 09:30:42 AM 20.4022 -68.4269 299° West 459 528 38,000  Level Miami Center
Thu 09:31:42 AM 20.4625 -68.5447 299° West 449 517 38,000  Level Miami Center
Thu 09:32:42 AM 20.5211 -68.6650 298° West 449 517 38,000  Level Miami Center
Thu 09:33:42 AM 20.5792 -68.7831 298° West 454 522 38,000  Level Miami Center
Thu 09:34:42 AM 20.6394 -68.9011 299° West 454 522 38,000  Level Miami Center
Thu 09:35:42 AM 20.6978 -69.0239 297° West 459 528 38,000  Level Miami Center
Thu 09:36:42 AM 20.7558 -69.1425 298° West 459 528 38,000  Level Miami Center
Thu 09:37:42 AM 20.8117 -69.2633 296° West 459 528 38,000  Level Miami Center
Thu 09:38:42 AM 20.8669 -69.3689 299° West 459 528 38,000  Level Miami Center
Thu 09:39:42 AM 20.9247 -69.4897 297° West 459 528 38,000  Level Miami Center
Thu 09:40:42 AM 20.9825 -69.6108 297° West 459 528 38,000  Level Miami Center
Thu 09:41:42 AM 21.0425 -69.7319 298° West 459 528 38,000  Level Miami Center
Thu 09:42:42 AM 21.1000 -69.8511 297° West 459 528 38,000  Level Miami Center
Thu 09:43:42 AM 21.1553 -69.9703 296° West 459 528 38,000  Level Miami Center
Thu 09:44:42 AM 21.2147 -70.0872 299° West 459 528 38,000  Level Miami Center
Thu 09:45:42 AM 21.2700 -70.2069 296° West 459 528 38,000  Level Miami Center
Thu 09:46:42 AM 21.3272 -70.3242 298° West 454 522 38,000  Level Miami Center
Thu 09:47:42 AM 21.3842 -70.4394 298° West 449 517 38,000  Level Miami Center
Thu 09:48:42 AM 21.4411 -70.5547 298° West 442 509 38,000  Level Miami Center
Thu 09:49:42 AM 21.4958 -70.6703 297° West 437 503 38,000  Level Miami Center
Thu 09:50:42 AM 21.5594 -70.8011 298° West 443 510 38,000  Level Miami Center
Thu 09:51:42 AM 21.6142 -70.9189 297° West 443 510 38,000  Level Miami Center
Thu 09:52:42 AM 21.6728 -71.0369 298° West 443 510 38,000  Level Miami Center
Thu 09:53:42 AM 21.7275 -71.1594 296° West 443 510 38,000  Level Miami Center
Thu 09:54:42 AM 21.7819 -71.2778 296° West 443 510 38,000 50 Level Miami Center
Thu 09:55:42 AM 21.8383 -71.3958 297° West 443 510 38,100  Climbing Miami Center
Thu 09:56:42 AM 21.8947 -71.5167 297° West 443 510 38,000 -50 Descending Miami Center
Thu 09:57:42 AM 21.9511 -71.6372 297° West 443 510 38,000  Level Miami Center
Thu 09:58:42 AM 22.0075 -71.7558 297° West 443 510 38,000  Level Miami Center
Thu 09:59:42 AM 22.0614 -71.8769 296° West 443 510 38,000  Level Miami Center
Thu 10:00:42 AM 22.1156 -71.9981 296° West 443 510 38,000  Level Miami Center
Thu 10:01:42 AM 22.1714 -72.1169 297° West 443 510 38,000  Level Miami Center
Thu 10:02:42 AM 22.2292 -72.2339 298° West 443 510 38,000  Level Miami Center
Thu 10:03:42 AM 22.2831 -72.3553 296° West 443 510 38,000  Level Miami Center
Thu 10:04:42 AM 22.3367 -72.4722 296° West 438 504 38,000  Level Miami Center
Thu 10:05:42 AM 22.3881 -72.5942 295° West 438 504 38,000  Level Miami Center
Thu 10:06:42 AM 22.4456 -72.7111 298° West 438 504 38,000  Level Miami Center
Thu 10:07:42 AM 22.4947 -72.8289 294° West 438 504 38,000  Level Miami Center
Thu 10:08:42 AM 22.5500 -72.9461 297° West 438 504 38,000  Level Miami Center
Thu 10:09:42 AM 22.6008 -73.0617 295° West 438 504 38,000  Level Miami Center
Thu 10:10:42 AM 22.6519 -73.1772 296° West 433 498 38,000  Level Miami Center
Thu 10:11:42 AM 22.7069 -73.2947 297° West 433 498 38,000  Level Miami Center
Thu 10:12:42 AM 22.7575 -73.4106 295° West 433 498 38,000  Level Miami Center
Thu 10:13:42 AM 22.8125 -73.5261 297° West 433 498 38,000  Level Miami Center
Thu 10:14:42 AM 22.8589 -73.6489 292° West 438 504 38,000  Level Miami Center
Thu 10:15:42 AM 22.9136 -73.7625 298° West 438 504 38,000  Level Miami Center
Thu 10:16:42 AM 22.9661 -73.8831 295° West 438 504 38,000  Level Miami Center
Thu 10:17:42 AM 23.0206 -74.0014 297° West 438 504 38,000  Level Miami Center
Thu 10:18:42 AM 23.0708 -74.1244 294° West 438 504 38,000  Level Miami Center
Thu 10:19:42 AM 23.1233 -74.2453 295° West 438 504 38,000  Level Miami Center
Thu 10:20:42 AM 23.1756 -74.3664 295° West 438 504 38,000  Level Miami Center
Thu 10:21:42 AM 23.2275 -74.4875 295° West 438 504 38,000  Level Miami Center
Thu 10:22:42 AM 23.2817 -74.6108 296° West 443 510 38,000  Level Miami Center
Thu 10:23:42 AM 23.3358 -74.7342 296° West 443 510 38,000  Level Miami Center
Thu 10:24:42 AM 23.3875 -74.8556 295° West 443 510 38,000  Level Miami Center
Thu 10:25:42 AM 23.4433 -74.9792 296° West 448 516 38,000  Level Miami Center
Thu 10:26:42 AM 23.4950 -75.1008 295° West 448 516 38,000  Level Miami Center
Thu 10:27:42 AM 23.5486 -75.2225 296° West 448 516 38,000  Level Miami Center
Thu 10:28:42 AM 23.6003 -75.3464 294° West 448 516 38,000  Level Miami Center
Thu 10:29:42 AM 23.6514 -75.4661 295° West 443 510 38,000  Level Miami Center
Thu 10:30:42 AM 23.7069 -75.5881 296° West 443 510 38,000  Level Miami Center
Thu 10:31:42 AM 23.7581 -75.7100 295° West 443 510 38,000  Level Miami Center
Thu 10:32:42 AM 23.8092 -75.8322 295° West 443 510 38,000  Level Miami Center
Thu 10:33:42 AM 23.8581 -75.9544 294° West 438 504 38,000  Level Miami Center
Thu 10:34:42 AM 23.9108 -76.0747 296° West 438 504 38,000  Level Miami Center
Thu 10:35:42 AM 23.9594 -76.1947 294° West 438 504 38,000  Level Miami Center
Thu 10:36:42 AM 24.0122 -76.3153 296° West 438 504 38,000  Level Miami Center
Thu 10:37:42 AM 24.0608 -76.4400 293° West 438 504 38,000  Level Miami Center
Thu 10:38:42 AM 24.1133 -76.5606 296° West 443 510 38,000  Level Miami Center
Thu 10:39:42 AM 24.1575 -76.6697 294° West 435 501 38,000  Level Miami Center
Thu 10:40:42 AM 24.2097 -76.7950 295° West 435 501 38,000  Level Miami Center
Thu 10:41:42 AM 24.2619 -76.9181 295° West 440 506 38,000  Level Miami Center
Thu 10:42:42 AM 24.3119 -77.0436 294° West 440 506 38,000  Level Miami Center
Thu 10:43:42 AM 24.3642 -77.1644 295° West 440 506 38,000  Level Miami Center
Thu 10:44:42 AM 24.4119 -77.2925 292° West 440 506 38,000  Level Miami Center
Thu 10:45:42 AM 24.4658 -77.4158 296° West 440 506 38,000  Level Miami Center
Thu 10:46:42 AM 24.5197 -77.5531 293° West 440 506 38,000  Level Miami Center
Thu 10:47:42 AM 24.5711 -77.6792 294° West 440 506 38,000  Level Miami Center
Thu 10:48:42 AM 24.6206 -77.8075 293° West 445 512 38,000  Level Miami Center
Thu 10:49:42 AM 24.6719 -77.9336 294° West 445 512 38,000  Level Miami Center
Thu 10:50:42 AM 24.7253 -78.0578 295° West 450 518 38,000  Level Miami Center
Thu 10:51:42 AM 24.7767 -78.1842 294° West 450 518 38,000  Level Miami Center
Thu 10:52:42 AM 24.8278 -78.3083 294° West 450 518 38,000 -250 Level Miami Center
Thu 10:53:42 AM 24.8786 -78.4347 294° West 450 518 37,500 -1,150 Descending Miami Center
Thu 10:54:42 AM 24.9294 -78.5661 293° West 455 524 35,700 -2,650 Descending Miami Center
Thu 10:55:42 AM 24.9822 -78.6928 295° West 455 524 32,200 -4,050 Descending Miami Center
Thu 10:56:42 AM 25.0308 -78.8197 293° West 455 524 27,600 -3,400 Descending Miami Center
Thu 10:57:42 AM 25.0733 -78.9214 295° West 455 524 25,400 -2,450 Descending Miami Center
Thu 10:58:42 AM 25.1381 -79.0625 297° West 442 509 22,700 -2,450 Descending Miami Center
Thu 10:59:42 AM 25.1803 -79.1803 292° West 431 496 20,500 -2,200 Descending Miami Center
Thu 11:00:42 AM 25.2264 -79.2939 294° West 420 483 18,300 -2,100 Descending Miami Center
Thu 11:01:42 AM 25.2725 -79.4050 295° West 410 472 16,300 -2,150 Descending Miami Center
Thu 11:02:42 AM 25.3144 -79.5161 293° West 398 458 14,000 -1,913 Descending Miami Center
Thu 11:04:00 AM 25.3619 -79.6575 290° West 360 414 11,900 -1,000 Descending Miami Center
Thu 11:04:42 AM 25.3881 -79.7225 294° West 373 429 12,000 -412 Climbing Miami Center
Thu 11:05:42 AM 25.4406 -79.8019 306° West 341 392 11,200 -950 Descending Miami Center
Thu 11:06:42 AM 25.4894 -79.8767 306° West 318 366 10,100 -1,300 Descending Miami Center
Thu 11:07:42 AM 25.5358 -79.9494 305° West 303 349 8,600 -1,050 Descending Miami Center
Thu 11:08:42 AM 25.5844 -80.0175 308° West 291 335 8,000 -300 Descending Miami Center
Thu 11:09:42 AM 25.6311 -80.0922 305° West 291 335 8,000  Level Miami Center
Thu 11:10:14 AM 25.6531 -80.1344 300° West 289 333 8,000 -73 Level Miami Center
Thu 11:11:04 AM 25.6744 -80.2019 289° West 279 321 7,900  Descending Miami Center
Thu 11:11:42 AM 25.6922 -80.2483 293° West 281 323 8,000 -735 Climbing Miami Center
Thu 11:12:42 AM 25.7094 -80.3181 285° West 259 298 6,700 -1,600 Descending Miami Center
Thu 11:13:12 AM 25.7064 -80.3572 265° West 230 265 5,600 -1,696 Descending Miami Center
Thu 11:14:14 AM 25.7025 -80.4331 267° West 232 267 4,100 -1,062 Descending Miami Center
Thu 11:15:22 AM 25.7006 -80.5092 268° West 214 246 3,300 -512 Descending Miami Center
Thu 11:16:23 AM 25.7419 -80.5289 337° Northwest 205 236 3,000 -295 Descending Miami Center

Login

Don't have an account? Register now (free) for customized features, flight alerts, and more!